NV21 weather

Sky Ranch Heliport
Sandy Valley, Nevada, United States

Public forecast

Using degrees Fahrenheit for public forecast. Weather courtesy of forecast.io.

Closest aviation weather report (METAR) to Sky Ranch Heliport

Closest report is Henderson Executive Airport, 26.2 nm (48.6 km) ENE. Retrieved 2019/10/19 12:56 UTC (19 minutes ago):

KHND 191256Z 20007KT 10SM CLR 10/M13 A2995 RMK AO2 SLP149 T01001128

Closest aviation forecast (TAF) to Sky Ranch Heliport

Closest forecast is Henderson Executive Airport, 26.2 nm (48.6 km) ENE. Retrieved 2019/10/19 12:30 UTC (45 minutes ago):

TAF KHND 191129Z 1912/2012 VRB05KT P6SM FEW250 FM191700 03006KT P6SM FEW250 FM192300 24008KT P6SM SCT250 FM200400 20010KT P6SM FEW140 SCT250 FM200900 VRB06KT P6SM FEW140 SCT250